EKX weather

Addington Field
Elizabethtown, Kentucky, United States

Public forecast

Using degrees Fahrenheit for public forecast. Weather courtesy of forecast.io.

Closest aviation weather report (METAR) to Addington Field

Closest report is Godman Army Air Field, 13.5 nm (24.9 km) N. Retrieved 2020/07/07 00:56 UTC (43 minutes ago):

KFTK 070056Z AUTO 00000KT 10SM BKN180 28/24 A2998 RMK AO2 SLP148 T02820240

Closest aviation forecast (TAF) to Addington Field

Closest forecast is Godman Army Air Field, 13.5 nm (24.9 km) N. Retrieved 2020-07-07 01:09 UTC (30 minutes ago):

TAF KFTK 070100Z 0701/0807 20006KT 9999 FEW050 SCT200 QNH2996INS BECMG 0715/0716 02006KT 9000 -SHRA BKN060 QNH2992INS TEMPO 0719/0723 33015G25KT 8000 -TSRA BKN025CB BECMG 0723/0724 35006KT 9999 NSW FEW035 SCT050 QNH2993INS TX33/0720Z TN21/0710Z